Time;durP1;ratioP1;P1;durP2;ratioP2;P2;SDS_P1;SDS_P2;PMS_P1;PMS_P2;Temp;Humidity;BMP_temperature;BMP_pressure;BME280_temperature;BME280_humidity;BME280_pressure;Samples;Min_cycle;Max_cycle;Signal;HPM_P1;HPM_P2
2024/01/09 00:01:43;;;;;;;33.10;18.45;;;;;;;-6.45;67.44;99470.88;5044935;28;20060;-73
2024/01/09 00:04:09;;;;;;;28.50;22.27;;;;;;;-6.22;66.90;99492.84;5042256;28;20043;-73
2024/01/09 00:06:34;;;;;;;28.55;21.33;;;;;;;-6.29;67.34;99494.22;5043052;28;20048;-73
2024/01/09 00:09:00;;;;;;;31.00;16.45;;;;;;;-6.58;66.84;99470.03;5014852;28;20066;-73
2024/01/09 00:11:25;;;;;;;28.65;21.95;;;;;;;-6.33;67.06;99469.19;5040418;28;20025;-73
2024/01/09 00:13:50;;;;;;;30.05;15.55;;;;;;;-6.54;67.09;99482.00;5025025;28;20032;-73
2024/01/09 00:16:16;;;;;;;30.00;14.82;;;;;;;-6.63;67.33;99471.31;5030798;28;20505;-76
2024/01/09 00:18:41;;;;;;;27.95;20.05;;;;;;;-6.49;67.27;99455.50;5044151;28;20041;-74
2024/01/09 00:21:06;;;;;;;31.33;19.40;;;;;;;-6.50;66.88;99456.41;5039075;28;20118;-73
2024/01/09 00:23:32;;;;;;;31.73;18.08;;;;;;;-6.53;67.49;99467.94;5044941;28;20037;-73
2024/01/09 00:25:57;;;;;;;29.20;21.55;;;;;;;-6.55;67.17;99459.38;5044315;28;20045;-73
2024/01/09 00:28:23;;;;;;;32.40;16.30;;;;;;;-6.57;67.24;99481.38;5050857;28;20060;-73
2024/01/09 00:30:48;;;;;;;28.40;19.20;;;;;;;-6.56;67.15;99441.16;5045113;28;20029;-73
2024/01/09 00:33:13;;;;;;;31.48;20.05;;;;;;;-6.50;67.72;99472.13;5031661;28;20044;-73
2024/01/09 00:35:39;;;;;;;29.23;20.08;;;;;;;-6.49;67.69;99476.44;5043406;28;20034;-73
2024/01/09 00:38:04;;;;;;;29.77;14.85;;;;;;;-6.85;67.38;99445.75;5039357;28;20393;-73
2024/01/09 00:40:29;;;;;;;29.98;21.60;;;;;;;-6.58;67.09;99445.66;5043018;28;20049;-73
2024/01/09 00:42:55;;;;;;;30.50;15.70;;;;;;;-6.67;66.84;99469.84;5043842;28;20064;-73
2024/01/09 00:45:20;;;;;;;29.15;21.83;;;;;;;-6.39;67.35;99477.47;5044143;28;20120;-72
2024/01/09 00:47:46;;;;;;;30.25;15.27;;;;;;;-6.78;66.96;99454.03;5047860;28;20480;-74
2024/01/09 00:50:11;;;;;;;30.08;16.85;;;;;;;-6.58;67.23;99469.22;4996652;28;20048;-73
2024/01/09 00:52:36;;;;;;;27.45;15.40;;;;;;;-6.81;67.15;99454.25;5043075;28;20033;-72
2024/01/09 00:55:02;;;;;;;30.40;13.80;;;;;;;-6.86;67.48;99453.72;5037946;28;20037;-74
2024/01/09 00:57:27;;;;;;;28.48;17.00;;;;;;;-6.63;67.40;99466.09;5020312;28;20044;-74
2024/01/09 00:59:52;;;;;;;28.17;17.65;;;;;;;-6.68;67.49;99457.69;5032278;28;20032;-73
2024/01/09 01:02:18;;;;;;;27.83;15.57;;;;;;;-6.87;67.04;99442.41;5044086;28;20047;-73
2024/01/09 01:04:43;;;;;;;27.77;21.48;;;;;;;-6.58;67.15;99443.84;5048432;28;20032;-73
2024/01/09 01:07:09;;;;;;;25.40;14.40;;;;;;;-6.83;67.60;99458.75;5017265;28;20141;-72
2024/01/09 01:09:34;;;;;;;28.23;16.13;;;;;;;-6.73;67.96;99454.56;5047606;28;20075;-74
2024/01/09 01:12:00;;;;;;;28.15;18.23;;;;;;;-6.71;67.39;99450.06;5041519;28;20510;-74
2024/01/09 01:14:25;;;;;;;30.70;21.50;;;;;;;-6.51;66.92;99465.25;5043453;28;20036;-73
2024/01/09 01:16:51;;;;;;;26.90;19.58;;;;;;;-6.57;66.94;99460.41;5028709;28;20404;-72
2024/01/09 01:19:16;;;;;;;27.45;18.67;;;;;;;-6.58;66.75;99464.81;5040284;28;20057;-73
2024/01/09 01:21:41;;;;;;;28.38;16.95;;;;;;;-6.89;67.23;99433.84;5028459;28;20029;-73
2024/01/09 01:24:07;;;;;;;28.23;18.17;;;;;;;-6.64;67.58;99462.63;5021277;28;20425;-72
2024/01/09 01:26:33;;;;;;;30.33;16.23;;;;;;;-6.67;67.55;99468.06;5035625;28;20128;-72
2024/01/09 01:28:58;;;;;;;28.13;16.90;;;;;;;-6.59;67.25;99472.78;5037447;28;20456;-73
2024/01/09 01:31:23;;;;;;;26.10;15.55;;;;;;;-6.61;67.68;99466.81;5041767;28;20036;-73
2024/01/09 01:33:49;;;;;;;26.08;17.55;;;;;;;-6.50;67.38;99456.41;5042389;28;20037;-73
2024/01/09 01:36:15;;;;;;;27.05;17.50;;;;;;;-6.79;67.26;99419.16;5041754;28;20034;-73
2024/01/09 01:38:41;;;;;;;24.80;13.85;;;;;;;-6.67;66.96;99439.25;5046950;28;20460;-73
2024/01/09 01:41:07;;;;;;;24.17;15.82;;;;;;;-6.57;66.68;99449.94;5048344;28;20037;-73
2024/01/09 01:43:32;;;;;;;27.63;16.25;;;;;;;-6.67;67.04;99439.25;5008922;28;20040;-73
2024/01/09 01:45:57;;;;;;;26.85;15.70;;;;;;;-6.50;66.79;99459.03;5028397;28;20385;-73
2024/01/09 01:48:23;;;;;;;30.45;15.90;;;;;;;-6.59;67.22;99463.16;5044933;28;20075;-73
2024/01/09 01:50:49;;;;;;;25.10;20.15;;;;;;;-6.38;66.77;99447.72;5037500;28;20060;-73
2024/01/09 01:53:14;;;;;;;26.55;13.52;;;;;;;-6.58;66.67;99448.28;5043931;28;20104;-73
2024/01/09 01:55:40;;;;;;;27.92;20.48;;;;;;;-6.46;66.35;99436.91;5026903;28;20094;-73
2024/01/09 01:58:05;;;;;;;28.33;16.88;;;;;;;-6.60;66.53;99444.91;5019862;28;20031;-72
2024/01/09 02:00:31;;;;;;;26.58;20.45;;;;;;;-6.39;66.33;99453.88;5033066;28;20400;-74
2024/01/09 02:02:57;;;;;;;23.20;16.05;;;;;;;-6.55;66.08;99432.31;5044849;28;20029;-73
2024/01/09 02:05:24;;;;;;;25.30;19.13;;;;;;;-6.56;65.87;99404.47;5047381;28;20048;-74
2024/01/09 02:07:53;;;;;;;24.88;13.60;;;;;;;-6.60;66.05;99450.13;5034044;28;20021;-74
2024/01/09 02:10:19;;;;;;;25.90;15.23;;;;;;;-6.74;66.34;99411.81;5028184;28;20056;-74
2024/01/09 02:12:45;;;;;;;24.55;13.48;;;;;;;-6.59;66.61;99441.34;5032224;28;20025;-74
2024/01/09 02:15:10;;;;;;;23.95;17.67;;;;;;;-6.58;66.53;99407.19;5025676;28;20481;-74
2024/01/09 02:17:36;;;;;;;25.67;16.70;;;;;;;-6.59;66.21;99415.16;5045460;28;20044;-74
2024/01/09 02:20:02;;;;;;;24.92;13.18;;;;;;;-6.61;66.57;99444.09;5031353;28;20048;-73
2024/01/09 02:22:27;;;;;;;30.35;15.15;;;;;;;-6.71;66.51;99422.09;5046006;28;20469;-74
2024/01/09 02:24:53;;;;;;;24.75;14.45;;;;;;;-6.71;66.37;99442.19;5046829;28;20124;-74
2024/01/09 02:27:30;;;;;;;30.08;20.67;;;;;;;-6.50;66.16;99425.84;5024881;28;20033;-73
2024/01/09 02:29:56;;;;;;;26.45;15.52;;;;;;;-6.54;66.46;99445.34;5046214;28;20029;-74
2024/01/09 02:32:22;;;;;;;25.08;14.13;;;;;;;-6.65;66.16;99439.16;5044903;28;20040;-74
2024/01/09 02:34:48;;;;;;;25.77;16.10;;;;;;;-6.60;66.27;99426.56;5027037;28;20080;-74
2024/01/09 02:37:14;;;;;;;26.38;19.50;;;;;;;-6.36;66.51;99437.97;5043290;28;20029;-74
2024/01/09 02:39:39;;;;;;;26.75;14.38;;;;;;;-6.75;66.19;99412.78;5025278;28;20073;-75
2024/01/09 02:42:04;;;;;;;25.45;14.75;;;;;;;-6.63;66.02;99434.66;5011894;28;20026;-74
2024/01/09 02:44:30;;;;;;;24.80;18.63;;;;;;;-6.61;66.40;99417.06;5037514;28;20044;-74
2024/01/09 02:46:55;;;;;;;23.85;15.63;;;;;;;-6.73;66.13;99417.91;5030019;28;20033;-74
2024/01/09 02:49:21;;;;;;;23.50;14.77;;;;;;;-6.60;66.25;99437.03;5043160;28;20037;-74
2024/01/09 02:51:46;;;;;;;28.38;15.43;;;;;;;-6.59;66.30;99441.34;5022074;28;20057;-74
2024/01/09 02:54:11;;;;;;;27.55;14.55;;;;;;;-6.77;66.04;99424.31;5024746;28;20412;-74
2024/01/09 02:56:37;;;;;;;26.67;19.45;;;;;;;-6.55;65.95;99421.84;5027484;28;20079;-74
2024/01/09 02:59:03;;;;;;;26.20;16.85;;;;;;;-6.52;66.18;99442.59;5046111;28;20033;-76
2024/01/09 03:01:28;;;;;;;21.33;12.27;;;;;;;-6.79;66.43;99434.84;5021624;28;20032;-76
2024/01/09 03:03:54;;;;;;;26.67;15.43;;;;;;;-6.66;66.31;99434.84;5048820;28;20037;-73
2024/01/09 03:06:19;;;;;;;26.20;13.45;;;;;;;-6.73;66.56;99444.09;5027042;28;20109;-73
2024/01/09 03:08:44;;;;;;;25.67;18.45;;;;;;;-6.56;66.40;99446.38;5026056;28;20040;-72
2024/01/09 03:11:10;;;;;;;27.17;13.80;;;;;;;-6.73;66.72;99441.47;5041426;28;20485;-72
2024/01/09 03:13:35;;;;;;;29.02;15.70;;;;;;;-6.63;66.36;99440.75;5047459;28;20037;-73
2024/01/09 03:16:00;;;;;;;27.20;16.80;;;;;;;-6.55;66.35;99435.78;5048031;28;20497;-73
2024/01/09 03:18:26;;;;;;;29.73;18.70;;;;;;;-6.66;66.17;99424.38;5044388;28;20507;-73
2024/01/09 03:20:51;;;;;;;26.30;15.95;;;;;;;-6.58;66.00;99453.50;5047905;28;20036;-73
2024/01/09 03:23:16;;;;;;;26.13;19.02;;;;;;;-6.64;66.58;99422.50;5042720;28;20029;-73
2024/01/09 03:25:42;;;;;;;27.98;17.20;;;;;;;-6.64;66.14;99448.69;5045129;28;20036;-72
2024/01/09 03:28:07;;;;;;;25.35;14.30;;;;;;;-6.80;65.97;99429.75;5030738;28;20045;-72
2024/01/09 03:30:33;;;;;;;30.08;18.40;;;;;;;-6.71;66.35;99422.09;5046231;28;20040;-72
2024/01/09 03:32:58;;;;;;;23.98;13.32;;;;;;;-6.85;65.98;99424.81;5046118;28;20029;-73
2024/01/09 03:35:23;;;;;;;26.48;17.92;;;;;;;-6.62;66.10;99426.69;5024308;28;20140;-73
2024/01/09 03:37:49;;;;;;;22.42;17.13;;;;;;;-6.55;65.72;99433.16;5044243;28;20044;-72
2024/01/09 03:40:14;;;;;;;23.45;12.73;;;;;;;-6.64;65.70;99432.97;5044674;28;20036;-73
2024/01/09 03:42:39;;;;;;;24.20;19.08;;;;;;;-6.61;65.72;99424.91;5047509;28;20481;-72
2024/01/09 03:45:06;;;;;;;25.42;13.27;;;;;;;-6.76;65.76;99423.34;5043925;28;20048;-72
2024/01/09 03:47:31;;;;;;;24.27;15.57;;;;;;;-6.58;65.67;99429.94;5047670;28;20083;-72
2024/01/09 03:49:57;;;;;;;25.40;13.32;;;;;;;-6.69;65.50;99440.31;5042511;28;20106;-73
2024/01/09 03:52:23;;;;;;;23.92;12.90;;;;;;;-6.67;65.35;99444.50;5037693;28;20136;-73
2024/01/09 03:54:48;;;;;;;25.88;13.18;;;;;;;-6.72;65.97;99432.69;5050498;28;20029;-73
2024/01/09 03:57:13;;;;;;;24.92;15.15;;;;;;;-6.70;66.04;99422.94;5043159;28;20041;-72
2024/01/09 03:59:39;;;;;;;25.70;16.83;;;;;;;-6.57;65.65;99424.59;5047758;28;20032;-71
2024/01/09 04:02:04;;;;;;;22.00;14.52;;;;;;;-6.68;65.92;99410.56;5039552;28;20128;-72
2024/01/09 04:04:30;;;;;;;22.55;15.05;;;;;;;-6.68;65.96;99411.41;5036440;28;20506;-72
2024/01/09 04:06:55;;;;;;;25.02;18.42;;;;;;;-6.48;65.77;99430.94;5045280;28;20115;-72
2024/01/09 04:09:20;;;;;;;23.85;12.35;;;;;;;-6.71;65.84;99427.31;5046044;28;20114;-72
2024/01/09 04:11:46;;;;;;;23.98;12.52;;;;;;;-6.80;65.85;99419.25;5039002;28;20029;-73
2024/01/09 04:14:12;;;;;;;23.17;12.52;;;;;;;-6.66;65.52;99432.25;5039361;28;20473;-72
2024/01/09 04:16:37;;;;;;;24.08;12.63;;;;;;;-6.72;64.92;99422.19;5036125;28;20692;-72
2024/01/09 04:19:03;;;;;;;23.58;13.57;;;;;;;-6.85;64.78;99413.50;5034890;28;20393;-72
2024/01/09 04:21:28;;;;;;;29.40;17.65;;;;;;;-6.64;64.83;99417.25;5046380;28;20037;-72
2024/01/09 04:23:54;;;;;;;21.50;14.07;;;;;;;-6.52;64.18;99421.66;5043621;28;20033;-73
2024/01/09 04:26:19;;;;;;;43.00;21.52;;;;;;;-6.58;64.00;99416.84;5044630;28;20033;-72
2024/01/09 04:28:44;;;;;;;26.55;15.90;;;;;;;-6.53;64.07;99425.19;5043602;28;20081;-72
2024/01/09 04:31:10;;;;;;;22.15;14.32;;;;;;;-6.49;63.81;99426.69;5041424;28;20378;-73
2024/01/09 04:33:35;;;;;;;22.98;14.13;;;;;;;-6.62;64.02;99403.09;5044335;28;20103;-72
2024/01/09 04:36:01;;;;;;;22.52;15.88;;;;;;;-6.46;64.41;99413.34;5040796;28;20045;-72
2024/01/09 04:38:26;;;;;;;19.27;12.10;;;;;;;-6.69;63.91;99398.41;5050112;28;20040;-72
2024/01/09 04:40:52;;;;;;;24.35;15.65;;;;;;;-6.60;64.07;99397.75;5045268;28;20044;-73
2024/01/09 04:43:17;;;;;;;25.05;16.05;;;;;;;-6.54;63.61;99400.81;5046450;28;20037;-72
2024/01/09 04:45:43;;;;;;;23.00;14.75;;;;;;;-6.49;63.76;99406.53;5037305;28;20045;-73
2024/01/09 04:48:08;;;;;;;23.02;12.75;;;;;;;-6.71;63.76;99376.72;5036480;28;20041;-73
2024/01/09 04:50:33;;;;;;;22.50;14.13;;;;;;;-6.56;63.20;99373.03;5021362;28;20397;-74
2024/01/09 04:52:59;;;;;;;22.30;14.93;;;;;;;-6.44;63.54;99403.63;5039364;28;20036;-73
2024/01/09 04:55:24;;;;;;;19.98;13.43;;;;;;;-6.56;63.87;99394.00;5044504;28;20045;-73
2024/01/09 04:57:49;;;;;;;21.50;15.85;;;;;;;-6.36;63.29;99396.03;5043368;28;20033;-73
2024/01/09 05:00:18;;;;;;;20.48;11.20;;;;;;;-6.48;63.01;99413.47;5043471;28;20034;-73
2024/01/09 05:02:43;;;;;;;20.23;12.13;;;;;;;-6.47;63.35;99411.69;5048607;28;20440;-73
2024/01/09 05:05:09;;;;;;;21.83;11.52;;;;;;;-6.45;62.61;99415.03;5040136;28;20045;-73
2024/01/09 05:07:34;;;;;;;20.10;10.45;;;;;;;-6.61;62.90;99396.09;5047079;28;20056;-73
2024/01/09 05:09:59;;;;;;;18.90;13.60;;;;;;;-6.37;62.29;99399.63;5038336;28;20025;-74
2024/01/09 05:12:25;;;;;;;20.55;15.65;;;;;;;-6.32;62.50;99402.72;5039076;28;20037;-74
2024/01/09 05:14:50;;;;;;;22.65;11.23;;;;;;;-6.53;62.29;99405.09;5026975;28;20500;-73
2024/01/09 05:17:16;;;;;;;19.30;10.52;;;;;;;-6.48;62.51;99412.63;5037632;28;20128;-72
2024/01/09 05:19:41;;;;;;;18.48;10.35;;;;;;;-6.64;62.75;99380.59;5036314;28;20471;-73
2024/01/09 05:22:06;;;;;;;20.00;14.90;;;;;;;-6.22;62.86;99405.53;5037003;28;20077;-73
2024/01/09 05:24:32;;;;;;;20.23;11.70;;;;;;;-6.36;62.06;99409.13;5029336;28;20134;-73
2024/01/09 05:26:57;;;;;;;18.15;10.52;;;;;;;-6.45;61.76;99415.03;5038901;28;20099;-73
2024/01/09 05:29:22;;;;;;;22.58;13.43;;;;;;;-6.26;62.06;99404.91;5045739;28;20120;-73
2024/01/09 05:31:48;;;;;;;18.42;11.75;;;;;;;-6.30;62.39;99406.06;5026408;28;20075;-73
2024/01/09 05:34:13;;;;;;;18.98;13.95;;;;;;;-6.35;61.38;99371.53;5010177;28;20073;-73
2024/01/09 05:36:39;;;;;;;19.85;13.55;;;;;;;-6.31;61.32;99396.53;5045452;28;20044;-73
2024/01/09 05:39:04;;;;;;;20.25;11.35;;;;;;;-6.34;61.00;99402.00;5046721;28;20045;-73
2024/01/09 05:41:29;;;;;;;17.90;13.55;;;;;;;-6.15;61.24;99410.22;5050498;28;20440;-73
2024/01/09 05:43:56;;;;;;;17.52;10.90;;;;;;;-6.41;61.14;99392.91;5043177;28;20116;-73
2024/01/09 05:46:22;;;;;;;18.58;10.10;;;;;;;-6.52;61.51;99384.97;5043325;28;20108;-72
2024/01/09 05:48:47;;;;;;;19.25;14.05;;;;;;;-6.22;61.09;99403.75;5043115;28;20257;-72
2024/01/09 05:51:12;;;;;;;21.63;11.93;;;;;;;-6.28;61.18;99417.31;5042848;28;20029;-73
2024/01/09 05:53:39;;;;;;;22.77;11.10;;;;;;;-6.44;61.03;99414.91;5039826;28;20083;-73
2024/01/09 05:56:06;;;;;;;20.27;11.63;;;;;;;-6.59;60.97;99370.63;5028021;28;20120;-74
2024/01/09 05:58:33;;;;;;;20.00;14.75;;;;;;;-6.15;60.46;99420.72;5037425;28;20119;-74
2024/01/09 06:00:58;;;;;;;19.55;10.32;;;;;;;-6.35;60.43;99410.81;5017749;28;20030;-73
2024/01/09 06:03:23;;;;;;;19.42;13.43;;;;;;;-6.31;60.68;99401.78;5031998;28;20073;-74
2024/01/09 06:05:49;;;;;;;20.90;11.45;;;;;;;-6.32;60.58;99418.44;5032500;28;20444;-72
2024/01/09 06:08:14;;;;;;;19.75;13.00;;;;;;;-6.22;60.11;99416.84;5037842;28;20045;-73
2024/01/09 06:10:40;;;;;;;21.02;11.52;;;;;;;-6.27;60.40;99418.97;5027355;28;20167;-73
2024/01/09 06:13:06;;;;;;;18.55;10.93;;;;;;;-6.37;60.04;99399.63;5025337;28;20033;-73
2024/01/09 06:15:31;;;;;;;20.85;14.55;;;;;;;-6.29;60.08;99391.19;5045393;28;20483;-74
2024/01/09 06:17:56;;;;;;;22.42;10.18;;;;;;;-6.29;60.09;99412.16;5023675;28;20037;-73
2024/01/09 06:20:22;;;;;;;21.63;11.00;;;;;;;-6.35;60.56;99422.13;5039428;28;20030;-73
2024/01/09 06:22:47;;;;;;;20.20;14.35;;;;;;;-6.18;60.87;99410.44;5038941;28;20033;-73
2024/01/09 06:25:13;;;;;;;17.33;10.05;;;;;;;-6.41;60.67;99395.50;5040429;28;20029;-72
2024/01/09 06:27:39;;;;;;;16.92;10.80;;;;;;;-6.31;60.55;99412.28;5014390;28;20044;-73
2024/01/09 06:30:06;;;;;;;18.98;14.20;;;;;;;-6.27;60.25;99394.53;5044457;28;20053;-72
2024/01/09 06:32:32;;;;;;;20.38;10.60;;;;;;;-6.35;60.36;99418.69;5034494;28;20037;-73
2024/01/09 06:34:57;;;;;;;20.25;11.35;;;;;;;-6.35;60.46;99421.31;5040106;28;20114;-73
2024/01/09 06:37:23;;;;;;;23.17;16.60;;;;;;;-6.20;60.35;99425.44;5017717;28;20135;-72
2024/01/09 06:39:48;;;;;;;32.63;27.23;;;;;;;-6.25;60.11;99427.53;5018186;28;20022;-73
2024/01/09 06:42:13;;;;;;;52.13;35.22;;;;;;;-6.44;60.28;99398.38;5019127;28;20048;-73
2024/01/09 06:44:39;;;;;;;19.02;12.57;;;;;;;-6.42;60.36;99417.44;5038231;28;20103;-73
2024/01/09 06:47:04;;;;;;;18.02;12.52;;;;;;;-6.36;60.30;99425.69;5041500;28;20048;-73
2024/01/09 06:49:29;;;;;;;19.80;11.23;;;;;;;-6.57;59.79;99392.31;5031909;28;20037;-73
2024/01/09 06:51:55;;;;;;;17.55;11.25;;;;;;;-6.21;59.94;99426.41;5033951;28;20052;-74
2024/01/09 06:54:20;;;;;;;18.40;10.95;;;;;;;-6.40;59.79;99410.31;5050917;28;20172;-74
2024/01/09 06:56:46;;;;;;;18.58;10.25;;;;;;;-6.32;59.45;99428.94;5042141;28;20060;-73
2024/01/09 06:59:11;;;;;;;18.10;10.65;;;;;;;-6.21;59.85;99442.13;5048399;28;20039;-73
2024/01/09 07:01:38;;;;;;;18.48;9.68;;;;;;;-6.27;59.46;99441.69;5001357;28;20041;-73
2024/01/09 07:04:05;;;;;;;17.90;12.77;;;;;;;-6.12;58.77;99420.50;5045134;28;20240;-73
2024/01/09 07:06:30;;;;;;;19.38;10.95;;;;;;;-6.18;59.45;99455.00;5028499;28;20504;-73
2024/01/09 07:08:56;;;;;;;19.27;10.88;;;;;;;-6.14;58.78;99464.34;5025873;28;20127;-73
2024/01/09 07:11:22;;;;;;;17.17;13.38;;;;;;;-6.16;58.38;99434.75;5043135;28;20113;-72
2024/01/09 07:13:47;;;;;;;16.35;12.85;;;;;;;-5.98;57.96;99457.06;5037491;28;20036;-73
2024/01/09 07:16:13;;;;;;;14.70;9.15;;;;;;;-6.14;58.68;99455.63;5038081;28;20102;-73
2024/01/09 07:18:38;;;;;;;16.70;8.93;;;;;;;-6.22;58.62;99456.16;5040054;28;20429;-73
2024/01/09 07:21:03;;;;;;;15.73;9.55;;;;;;;-6.06;58.39;99456.75;5031406;28;20031;-74
2024/01/09 07:23:29;;;;;;;16.60;12.52;;;;;;;-6.08;58.04;99427.19;5039460;28;20082;-73
2024/01/09 07:25:54;;;;;;;17.83;13.43;;;;;;;-5.96;58.01;99454.31;5031158;28;20084;-73
2024/01/09 07:28:20;;;;;;;54.25;19.42;;;;;;;-6.23;58.39;99438.75;5034493;28;20033;-72
2024/01/09 07:30:45;;;;;;;109.63;32.92;;;;;;;-6.24;57.81;99451.97;5039146;28;20401;-73
2024/01/09 07:33:11;;;;;;;62.85;30.10;;;;;;;-5.82;57.50;99465.44;5033207;28;20496;-73
2024/01/09 07:35:37;;;;;;;35.35;17.25;;;;;;;-6.01;57.10;99454.63;5014217;28;20161;-72
2024/01/09 07:38:04;;;;;;;78.05;24.50;;;;;;;-5.91;57.26;99470.56;5030881;28;20032;-73
2024/01/09 07:40:29;;;;;;;65.75;27.85;;;;;;;-5.73;57.01;99474.44;5007998;28;20520;-73
2024/01/09 07:42:58;;;;;;;22.45;10.73;;;;;;;-5.82;57.07;99475.94;5036540;28;20037;-72
2024/01/09 07:45:28;;;;;;;42.28;22.58;;;;;;;-5.65;56.98;99477.34;5017264;28;20029;-73
2024/01/09 07:47:54;;;;;;;46.03;21.92;;;;;;;-5.65;56.43;99478.16;5039286;28;20041;-71
2024/01/09 07:50:20;;;;;;;37.22;19.20;;;;;;;-5.57;56.38;99484.63;5038208;28;20158;-72
2024/01/09 07:52:46;;;;;;;18.42;12.88;;;;;;;-5.55;56.21;99469.66;5032244;28;20029;-70
2024/01/09 07:55:11;;;;;;;34.80;18.55;;;;;;;-5.63;55.74;99465.81;5041992;28;20029;-72
2024/01/09 07:57:37;;;;;;;29.10;18.20;;;;;;;-5.53;55.64;99471.19;5037412;28;20036;-72
2024/01/09 08:00:04;;;;;;;17.58;8.93;;;;;;;-5.98;56.00;99433.44;5024350;28;20108;-72
2024/01/09 08:02:36;;;;;;;30.65;14.20;;;;;;;-5.63;55.59;99473.66;5024478;28;20041;-72
2024/01/09 08:05:02;;;;;;;22.10;15.38;;;;;;;-5.50;56.08;99457.00;5012872;28;20493;-72
2024/01/09 08:07:28;;;;;;;18.20;9.65;;;;;;;-5.65;55.37;99459.00;5034330;28;20109;-73
2024/01/09 08:09:53;;;;;;;17.10;11.00;;;;;;;-5.41;56.22;99464.22;5033107;28;20170;-72
2024/01/09 08:12:18;;;;;;;17.52;10.82;;;;;;;-5.44;56.36;99460.03;5023847;28;20040;-72
2024/01/09 08:14:44;;;;;;;19.30;11.50;;;;;;;-5.37;55.46;99473.53;5040268;28;20444;-72
2024/01/09 08:17:09;;;;;;;14.63;9.55;;;;;;;-5.50;55.12;99454.38;5030452;28;20060;-73
2024/01/09 08:19:34;;;;;;;15.02;9.27;;;;;;;-5.32;55.24;99466.16;5043301;28;20102;-73
2024/01/09 08:22:00;;;;;;;18.17;11.35;;;;;;;-5.20;54.66;99470.47;5025301;28;20090;-73
2024/01/09 08:24:25;;;;;;;20.90;12.32;;;;;;;-5.29;54.28;99468.53;5032085;28;20405;-72
2024/01/09 08:26:51;;;;;;;18.17;11.20;;;;;;;-5.18;54.62;99471.22;5040733;28;20469;-73
2024/01/09 08:29:16;;;;;;;22.15;16.30;;;;;;;-5.05;53.99;99461.47;5040405;28;20036;-74
2024/01/09 08:31:45;;;;;;;16.58;10.75;;;;;;;-5.06;53.42;99472.91;5002149;28;20028;-73
2024/01/09 08:34:12;;;;;;;16.67;10.50;;;;;;;-5.06;53.49;99457.16;5023019;28;20038;-73
2024/01/09 08:36:38;;;;;;;14.63;11.75;;;;;;;-4.87;53.40;99475.81;5010772;28;20466;-73
2024/01/09 08:39:03;;;;;;;18.08;11.57;;;;;;;-4.97;53.13;99456.50;5036983;28;20037;-73
2024/01/09 08:41:28;;;;;;;15.43;9.02;;;;;;;-5.06;52.58;99451.91;5034206;28;20028;-73
2024/01/09 08:43:54;;;;;;;15.40;9.48;;;;;;;-4.93;52.80;99471.91;5039427;28;20059;-74
2024/01/09 08:46:19;;;;;;;15.75;10.88;;;;;;;-4.80;53.53;99466.53;5031046;28;20075;-74
2024/01/09 08:48:46;;;;;;;17.63;13.40;;;;;;;-4.67;52.92;99462.03;5030513;28;20041;-73
2024/01/09 08:51:12;;;;;;;17.10;10.35;;;;;;;-4.85;53.04;99446.84;5016152;28;20026;-74
2024/01/09 08:53:37;;;;;;;16.63;12.93;;;;;;;-4.63;52.89;99467.88;5036623;28;20095;-72
2024/01/09 08:56:03;;;;;;;16.38;9.82;;;;;;;-4.77;53.07;99455.81;5036548;28;20108;-73
2024/01/09 08:58:28;;;;;;;17.45;9.35;;;;;;;-4.63;53.02;99468.72;5033923;28;20039;-73
2024/01/09 09:00:53;;;;;;;16.05;12.52;;;;;;;-4.47;52.22;99469.19;5044882;28;20040;-72
2024/01/09 09:03:19;;;;;;;16.65;10.13;;;;;;;-4.47;52.37;99469.19;5014660;28;20239;-73
2024/01/09 09:05:44;;;;;;;15.02;11.18;;;;;;;-4.51;52.09;99470.41;5038140;28;20040;-71
2024/01/09 09:08:11;;;;;;;18.02;12.95;;;;;;;-4.34;51.55;99480.44;5023020;28;20037;-71
2024/01/09 09:10:37;;;;;;;15.57;9.50;;;;;;;-4.38;51.54;99484.25;5043042;28;20094;-71
2024/01/09 09:13:03;;;;;;;16.95;8.70;;;;;;;-4.50;52.21;99476.47;5039425;28;20033;-71
2024/01/09 09:15:28;;;;;;;13.82;9.32;;;;;;;-4.41;52.20;99473.16;5041409;28;20033;-71
2024/01/09 09:17:54;;;;;;;17.35;9.07;;;;;;;-4.32;52.04;99483.75;5042748;28;20035;-71
2024/01/09 09:20:20;;;;;;;15.88;9.75;;;;;;;-4.18;51.24;99480.91;5030056;28;20497;-71
2024/01/09 09:22:46;;;;;;;15.27;9.48;;;;;;;-4.13;51.67;99487.63;5038952;28;20063;-73
2024/01/09 09:25:11;;;;;;;18.92;10.18;;;;;;;-4.09;51.46;99475.88;5030243;28;20037;-73
2024/01/09 09:27:37;;;;;;;15.88;9.02;;;;;;;-4.09;50.79;99478.50;5023269;28;20592;-73
2024/01/09 09:30:04;;;;;;;15.85;8.45;;;;;;;-4.12;50.61;99473.47;5029545;28;20030;-72
2024/01/09 09:32:31;;;;;;;16.55;9.43;;;;;;;-3.98;50.74;99473.22;5038877;28;20485;-72
2024/01/09 09:34:56;;;;;;;14.00;8.80;;;;;;;-3.97;50.64;99472.28;5019597;28;20028;-73
2024/01/09 09:37:21;;;;;;;18.13;8.68;;;;;;;-3.90;50.20;99479.59;5030432;28;20041;-72
2024/01/09 09:39:47;;;;;;;13.98;9.23;;;;;;;-3.77;50.19;99474.16;5036938;28;20388;-73
2024/01/09 09:42:12;;;;;;;13.98;9.98;;;;;;;-3.67;50.19;99469.84;5022619;28;20049;-73
2024/01/09 09:44:38;;;;;;;16.90;8.85;;;;;;;-3.64;49.96;99485.38;5017759;28;20036;-72
2024/01/09 09:47:05;;;;;;;14.30;9.05;;;;;;;-3.60;49.59;99466.59;5032816;28;20128;-74
2024/01/09 09:49:30;;;;;;;14.68;8.50;;;;;;;-3.63;49.39;99460.72;5032909;28;20017;-73
2024/01/09 09:51:57;;;;;;;15.82;8.65;;;;;;;-3.43;49.70;99486.25;5039281;28;20030;-73
2024/01/09 09:54:24;;;;;;;16.27;9.13;;;;;;;-3.35;49.36;99481.22;5027622;28;20248;-73
2024/01/09 09:56:49;;;;;;;15.50;8.65;;;;;;;-3.41;48.70;99455.41;5010025;28;20038;-73
2024/01/09 09:59:15;;;;;;;21.10;11.38;;;;;;;-3.31;48.54;99473.91;5035842;28;20083;-73
2024/01/09 10:01:41;;;;;;;18.15;11.07;;;;;;;-3.19;48.97;99464.97;5024076;28;20357;-73
2024/01/09 10:04:24;;;;;;;19.30;10.38;;;;;;;-3.13;48.30;99477.66;5012764;28;20030;-73
2024/01/09 10:06:52;;;;;;;18.15;10.43;;;;;;;-3.04;48.38;99479.53;5023369;28;20112;-74
2024/01/09 10:09:18;;;;;;;21.85;12.73;;;;;;;-3.04;48.51;99469.84;5024656;28;20029;-73
2024/01/09 10:11:48;;;;;;;15.75;9.90;;;;;;;-2.94;47.99;99473.34;5040259;28;20033;-71
2024/01/09 10:14:13;;;;;;;16.13;9.70;;;;;;;-2.98;47.59;99469.31;5032160;28;20022;-73
2024/01/09 10:16:53;;;;;;;13.27;9.07;;;;;;;-2.91;47.83;99453.81;5041779;28;20035;-74
2024/01/09 10:19:24;;;;;;;19.15;12.80;;;;;;;-2.82;47.04;99448.59;5028030;28;20045;-74
2024/01/09 10:21:50;;;;;;;16.88;10.00;;;;;;;-2.76;47.29;99454.34;5047996;28;20037;-73
2024/01/09 10:24:16;;;;;;;14.65;9.40;;;;;;;-2.69;47.42;99460.75;5042119;28;20080;-74
2024/01/09 10:26:42;;;;;;;22.17;11.07;;;;;;;-2.76;46.32;99456.97;5002865;28;20034;-73
2024/01/09 10:29:11;;;;;;;14.68;8.82;;;;;;;-2.68;46.92;99457.16;5034174;28;20047;-73
2024/01/09 10:31:38;;;;;;;19.58;9.80;;;;;;;-2.75;46.52;99433.09;5039938;28;20033;-74
2024/01/09 10:34:05;;;;;;;16.67;8.93;;;;;;;-2.73;46.33;99428.53;5035562;28;20112;-74
2024/01/09 10:36:30;;;;;;;16.98;9.68;;;;;;;-2.62;45.85;99439.03;5023959;28;20029;-74
2024/01/09 10:39:06;;;;;;;18.02;9.77;;;;;;;-2.55;45.85;99434.06;5035824;28;20469;-74
2024/01/09 10:41:32;;;;;;;19.25;10.48;;;;;;;-2.54;45.88;99420.72;5047933;28;20029;-74
2024/01/09 10:44:01;;;;;;;16.75;10.00;;;;;;;-2.35;45.78;99443.72;5033238;28;20521;-74
2024/01/09 10:46:29;;;;;;;12.73;7.82;;;;;;;-2.34;45.73;99432.22;5042962;28;20389;-74
2024/01/09 10:49:00;;;;;;;15.13;7.90;;;;;;;-2.26;44.85;99433.19;5040767;28;20030;-74
2024/01/09 10:51:26;;;;;;;13.45;8.55;;;;;;;-2.21;44.73;99422.25;5031610;28;20036;-74
2024/01/09 10:53:52;;;;;;;13.68;8.35;;;;;;;-2.15;45.27;99421.72;5031976;28;20021;-74
2024/01/09 10:56:19;;;;;;;14.07;9.40;;;;;;;-2.10;45.14;99424.78;5013391;28;20172;-73
2024/01/09 10:58:45;;;;;;;13.23;9.60;;;;;;;-2.12;45.27;99405.59;5038614;28;20109;-73
2024/01/09 11:01:11;;;;;;;16.33;9.50;;;;;;;-2.02;45.35;99417.03;5036108;28;20204;-73
2024/01/09 11:03:36;;;;;;;13.25;8.30;;;;;;;-2.05;45.28;99414.66;5022813;28;20040;-73
2024/01/09 11:06:03;;;;;;;14.70;8.45;;;;;;;-1.99;44.99;99419.41;5041967;28;20036;-73
2024/01/09 11:08:31;;;;;;;13.82;8.50;;;;;;;-1.97;44.83;99404.28;5040078;28;20025;-74
2024/01/09 11:10:57;;;;;;;12.15;9.38;;;;;;;-1.84;44.06;99399.56;5039767;28;20683;-73
2024/01/09 11:13:23;;;;;;;14.80;8.57;;;;;;;-1.85;43.82;99411.09;5038406;28;20021;-74